| time (UTC) | temp F | wind direction | speed MPH | gust MPH | rain 1hr in | rain 24hr in | rain mn in | humidity % | barometer mb |
| 20260508065403 | 50 | 184 | 2.0 | 5.0 | 0.00 | 0.00 | 0.00 | 83 | 992.8 |
| 20260508064503 | 50 | 184 | 3.0 | 6.0 | 0.00 | 0.00 | 0.00 | 83 | 992.7 |
| 20260508063603 | 50 | 185 | 3.0 | 7.0 | 0.00 | 0.00 | 0.00 | 83 | 992.7 |
| 20260508062703 | 49 | 186 | 3.0 | 8.0 | 0.00 | 0.00 | 0.00 | 84 | 992.5 |
| 20260508061803 | 49 | 187 | 3.0 | 7.0 | 0.00 | 0.00 | 0.00 | 85 | 992.4 |
| 20260508060903 | 49 | 189 | 3.0 | 8.0 | 0.00 | 0.00 | 0.00 | 86 | 992.4 |
| 20260508060003 | 49 | 189 | 2.0 | 6.0 | 0.00 | 0.00 | 0.00 | 86 | 992.5 |
| 20260508055403 | 49 | 189 | 2.0 | 6.0 | 0.00 | 0.00 | 0.00 | 86 | 992.3 |
| 20260508054716 | 49 | 190 | 2.0 | 6.0 | 0.00 | 0.00 | 0.00 | 86 | 992.3 |
| 20260508053603 | 49 | 190 | 2.0 | 5.0 | 0.00 | 0.00 | 0.00 | 86 | 992.2 |
| 20260508052917 | 49 | 190 | 2.0 | 4.0 | 0.00 | 0.00 | 0.00 | 86 | 992.1 |
| 20260508052016 | 49 | 190 | 2.0 | 4.0 | 0.00 | 0.00 | 0.00 | 86 | 992.1 |
| 20260508050903 | 49 | 190 | 2.0 | 5.0 | 0.00 | 0.00 | 0.00 | 87 | 992.0 |
| 20260508050003 | 49 | 190 | 2.0 | 5.0 | 0.00 | 0.00 | 0.00 | 86 | 992.0 |
| 20260508045403 | 49 | 191 | 3.0 | 7.0 | 0.00 | 0.00 | 0.00 | 87 | 991.9 |
| 20260508044503 | 49 | 194 | 2.0 | 6.0 | 0.00 | 0.00 | 0.00 | 87 | 992.0 |
| 20260508043603 | 49 | 194 | 2.0 | 5.0 | 0.00 | 0.00 | 0.00 | 87 | 991.9 |
| 20260508042703 | 49 | 195 | 2.0 | 5.0 | 0.00 | 0.00 | 0.00 | 87 | 992.0 |
| 20260508041803 | 49 | 196 | 2.0 | 6.0 | 0.00 | 0.00 | 0.00 | 87 | 992.0 |
| 20260508041118 | 49 | 196 | 2.0 | 4.0 | 0.00 | 0.00 | 0.00 | 87 | 991.9 |
| 20260508040003 | 49 | 196 | 2.0 | 6.0 | 0.00 | 0.00 | 0.00 | 87 | 991.8 |
| 20260508035403 | 48 | 196 | 1.0 | 5.0 | 0.00 | 0.00 | 0.00 | 87 | 991.8 |
| 20260508034503 | 49 | 196 | 3.0 | 6.0 | 0.00 | 0.00 | 0.00 | 87 | 991.9 |
| 20260508033817 | 49 | 198 | 2.0 | 7.0 | 0.00 | 0.00 | 0.00 | 87 | 991.8 |
| 20260508032703 | 49 | 200 | 2.0 | 5.0 | 0.00 | 0.00 | 0.00 | 87 | 991.7 |
| 20260508031803 | 49 | 200 | 1.0 | 4.0 | 0.00 | 0.00 | 0.00 | 86 | 991.7 |
| 20260508030903 | 49 | 200 | 2.0 | 4.0 | 0.00 | 0.00 | 0.00 | 86 | 991.7 |
| 20260508030216 | 48 | 200 | 2.0 | 5.0 | 0.00 | 0.00 | 0.00 | 87 | 991.7 |
| 20260508025403 | 48 | 200 | 1.0 | 5.0 | 0.00 | 0.00 | 0.00 | 87 | 991.8 |
| 20260508024503 | 48 | 200 | 2.0 | 4.0 | 0.00 | 0.00 | 0.00 | 87 | 991.9 |
| 20260508023603 | 48 | 200 | 2.0 | 6.0 | 0.00 | 0.00 | 0.00 | 88 | 991.8 |
| 20260508022703 | 47 | 202 | 0.0 | 6.0 | 0.00 | 0.00 | 0.00 | 88 | 991.9 |
| 20260508021803 | 46 | 203 | 0.0 | 2.0 | 0.00 | 0.00 | 0.00 | 87 | 991.7 |
| 20260508021117 | 46 | 203 | 0.0 | 2.0 | 0.00 | 0.00 | 0.00 | 87 | 991.6 |
| 20260508020003 | 47 | 203 | 0.0 | 1.0 | 0.00 | 0.00 | 0.00 | 86 | 991.6 |
| 20260508015618 | 47 | 0 | 0.0 | 0.0 | 0.00 | 0.00 | 0.00 | 86 | 991.7 |
| 20260508014717 | 48 | 203 | 0.0 | 1.0 | 0.00 | 0.00 | 0.00 | 85 | 991.5 |
| 20260508013603 | 48 | 0 | 0.0 | 0.0 | 0.00 | 0.00 | 0.00 | 85 | 991.8 |
| 20260508012703 | 49 | 203 | 0.0 | 1.0 | 0.00 | 0.00 | 0.00 | 84 | 991.8 |
| 20260508011803 | 49 | 203 | 0.0 | 2.0 | 0.00 | 0.00 | 0.00 | 84 | 991.8 |
| 20260508010903 | 49 | 0 | 0.0 | 0.0 | 0.00 | 0.00 | 0.00 | 84 | 991.8 |
| 20260508010218 | 49 | 203 | 1.0 | 3.0 | 0.00 | 0.00 | 0.00 | 84 | 991.8 |
| 20260508005617 | 49 | 203 | 1.0 | 4.0 | 0.00 | 0.00 | 0.00 | 84 | 991.7 |
| 20260508004503 | 49 | 203 | 0.0 | 3.0 | 0.00 | 0.00 | 0.00 | 84 | 991.8 |
| 20260508003603 | 49 | 203 | 0.0 | 2.0 | 0.00 | 0.00 | 0.00 | 84 | 991.7 |
| 20260508002703 | 49 | 203 | 0.0 | 3.0 | 0.00 | 0.00 | 0.00 | 84 | 991.8 |
| 20260508001803 | 49 | 0 | 0.0 | 0.0 | 0.00 | 0.00 | 0.00 | 84 | 991.8 |
| 20260508000903 | 50 | 0 | 0.0 | 0.0 | 0.00 | 0.00 | 0.00 | 83 | 991.9 |
| 20260508000003 | 50 | 203 | 1.0 | 2.0 | 0.00 | 0.00 | 0.00 | 83 | 992.0 |
| 20260507235403 | 50 | 203 | 1.0 | 4.0 | 0.00 | 0.00 | 0.00 | 83 | 992.0 |
| 20260507234718 | 50 | 203 | 0.0 | 3.0 | 0.00 | 0.00 | 0.00 | 83 | 991.9 |
| 20260507233603 | 50 | 203 | 0.0 | 3.0 | 0.00 | 0.00 | 0.00 | 83 | 991.9 |
| 20260507232703 | 50 | 203 | 1.0 | 3.0 | 0.00 | 0.00 | 0.00 | 83 | 991.9 |
| 20260507231803 | 50 | 203 | 1.0 | 4.0 | 0.00 | 0.00 | 0.00 | 83 | 991.9 |
| 20260507230903 | 50 | 203 | 1.0 | 5.0 | 0.00 | 0.00 | 0.00 | 83 | 992.0 |
| 20260507230003 | 50 | 203 | 1.0 | 4.0 | 0.00 | 0.00 | 0.00 | 83 | 992.0 |
| 20260507225403 | 50 | 203 | 1.0 | 3.0 | 0.00 | 0.00 | 0.00 | 83 | 991.9 |
| 20260507224503 | 50 | 203 | 1.0 | 4.0 | 0.00 | 0.00 | 0.00 | 82 | 991.9 |
| 20260507223817 | 50 | 203 | 1.0 | 4.0 | 0.00 | 0.00 | 0.00 | 82 | 991.8 |
| 20260507222703 | 50 | 203 | 1.0 | 4.0 | 0.00 | 0.00 | 0.00 | 82 | 991.8 |
| 20260507221803 | 50 | 203 | 1.0 | 4.0 | 0.00 | 0.00 | 0.00 | 82 | 991.8 |
| 20260507220903 | 50 | 203 | 1.0 | 5.0 | 0.00 | 0.00 | 0.00 | 82 | 991.8 |
| 20260507220003 | 50 | 203 | 1.0 | 5.0 | 0.00 | 0.00 | 0.00 | 82 | 991.8 |
| 20260507215403 | 50 | 203 | 1.0 | 2.0 | 0.00 | 0.00 | 0.00 | 82 | 991.8 |
| 20260507214717 | 50 | 203 | 1.0 | 2.0 | 0.00 | 0.00 | 0.00 | 82 | 991.9 |
| 20260507213603 | 51 | 203 | 1.0 | 3.0 | 0.00 | 0.00 | 0.00 | 81 | 991.8 |
| 20260507212703 | 51 | 203 | 1.0 | 4.0 | 0.00 | 0.00 | 0.00 | 81 | 992.0 |
| 20260507212018 | 51 | 203 | 1.0 | 5.0 | 0.00 | 0.00 | 0.00 | 81 | 991.9 |
| 20260507210903 | 51 | 0 | 0.0 | 0.0 | 0.00 | 0.00 | 0.00 | 80 | 991.8 |
| 20260507210218 | 51 | 0 | 0.0 | 0.0 | 0.00 | 0.00 | 0.00 | 80 | 991.7 |
| 20260507205403 | 51 | 203 | 1.0 | 3.0 | 0.00 | 0.00 | 0.00 | 80 | 991.7 |
| 20260507204503 | 51 | 203 | 2.0 | 4.0 | 0.00 | 0.00 | 0.00 | 79 | 991.6 |
| 20260507203603 | 52 | 203 | 2.0 | 6.0 | 0.00 | 0.00 | 0.00 | 79 | 991.5 |
| 20260507202703 | 52 | 203 | 2.0 | 6.0 | 0.00 | 0.00 | 0.00 | 79 | 991.4 |
| 20260507201803 | 52 | 203 | 1.0 | 7.0 | 0.00 | 0.00 | 0.00 | 79 | 991.4 |
| 20260507200903 | 52 | 203 | 1.0 | 4.0 | 0.00 | 0.00 | 0.00 | 79 | 991.3 |
| 20260507200003 | 52 | 203 | 2.0 | 5.0 | 0.00 | 0.00 | 0.00 | 79 | 991.1 |
| 20260507195403 | 51 | 203 | 2.0 | 5.0 | 0.00 | 0.00 | 0.00 | 80 | 991.2 |
| 20260507194503 | 51 | 203 | 2.0 | 5.0 | 0.00 | 0.00 | 0.00 | 80 | 991.2 |
| 20260507193818 | 51 | 203 | 2.0 | 5.0 | 0.00 | 0.00 | 0.00 | 80 | 991.2 |
| 20260507192929 | 51 | 203 | 2.0 | 7.0 | 0.00 | 0.00 | 0.00 | 80 | 991.1 |
| 20260507191803 | 52 | 204 | 2.0 | 6.0 | 0.00 | 0.00 | 0.00 | 80 | 991.0 |
| 20260507190903 | 52 | 205 | 2.0 | 7.0 | 0.00 | 0.00 | 0.00 | 79 | 990.9 |
| 20260507190004 | 52 | 207 | 2.0 | 8.0 | 0.00 | 0.00 | 0.00 | 80 | 990.8 |
| 20260507185403 | 52 | 208 | 1.0 | 5.0 | 0.00 | 0.00 | 0.00 | 80 | 990.8 |
| 20260507184503 | 51 | 208 | 1.0 | 3.0 | 0.00 | 0.00 | 0.00 | 80 | 990.7 |
| 20260507183603 | 52 | 209 | 3.0 | 6.0 | 0.00 | 0.00 | 0.00 | 80 | 990.7 |
| 20260507182703 | 52 | 209 | 3.0 | 7.0 | 0.00 | 0.00 | 0.00 | 79 | 990.9 |
| 20260507181803 | 52 | 209 | 4.0 | 6.0 | 0.00 | 0.00 | 0.00 | 79 | 990.9 |
| 20260507180903 | 52 | 209 | 4.0 | 8.0 | 0.00 | 0.00 | 0.00 | 78 | 991.0 |
| 20260507180003 | 53 | 209 | 3.0 | 8.0 | 0.00 | 0.00 | 0.00 | 77 | 990.9 |
| 20260507175403 | 53 | 209 | 3.0 | 7.0 | 0.00 | 0.00 | 0.00 | 76 | 990.8 |
| 20260507174503 | 53 | 209 | 4.0 | 8.0 | 0.00 | 0.00 | 0.00 | 76 | 990.8 |
| 20260507173603 | 53 | 208 | 4.0 | 9.0 | 0.00 | 0.00 | 0.00 | 75 | 990.8 |
| 20260507172917 | 54 | 206 | 5.0 | 8.0 | 0.00 | 0.00 | 0.00 | 74 | 990.8 |
| 20260507171803 | 54 | 191 | 4.0 | 12.0 | 0.00 | 0.00 | 0.00 | 72 | 990.7 |
| 20260507170903 | 55 | 144 | 2.0 | 8.0 | 0.00 | 0.00 | 0.00 | 67 | 990.8 |
| 20260507170003 | 55 | 144 | 2.0 | 5.0 | 0.00 | 0.00 | 0.00 | 66 | 990.8 |
| 20260507165403 | 56 | 144 | 1.0 | 5.0 | 0.00 | 0.00 | 0.00 | 65 | 990.8 |
| 20260507164718 | 56 | 144 | 2.0 | 4.0 | 0.00 | 0.00 | 0.00 | 64 | 990.7 |
| 20260507163603 | 56 | 144 | 2.0 | 5.0 | 0.00 | 0.00 | 0.00 | 62 | 990.6 |
| 20260507162703 | 56 | 144 | 2.0 | 5.0 | 0.00 | 0.00 | 0.00 | 61 | 990.6 |
| 20260507161803 | 56 | 144 | 3.0 | 7.0 | 0.00 | 0.00 | 0.00 | 60 | 990.5 |
| 20260507160903 | 57 | 143 | 2.0 | 7.0 | 0.00 | 0.00 | 0.00 | 61 | 990.6 |
| 20260507160014 | 57 | 143 | 2.0 | 7.0 | 0.00 | 0.00 | 0.00 | 60 | 990.7 |
| 20260507155403 | 56 | 143 | 2.0 | 5.0 | 0.00 | 0.00 | 0.00 | 61 | 990.7 |
| 20260507154503 | 56 | 143 | 3.0 | 7.0 | 0.00 | 0.00 | 0.00 | 61 | 990.7 |
| 20260507153603 | 57 | 143 | 3.0 | 8.0 | 0.00 | 0.00 | 0.00 | 59 | 990.8 |
| 20260507152703 | 57 | 146 | 4.0 | 10.0 | 0.00 | 0.00 | 0.00 | 58 | 991.0 |
| 20260507151803 | 57 | 148 | 4.0 | 10.0 | 0.00 | 0.00 | 0.00 | 58 | 990.8 |
| 20260507150903 | 57 | 140 | 4.0 | 10.0 | 0.00 | 0.00 | 0.00 | 58 | 990.9 |
| 20260507150003 | 57 | 160 | 3.0 | 12.0 | 0.00 | 0.00 | 0.00 | 58 | 990.9 |
| 20260507145403 | 56 | 169 | 3.0 | 7.0 | 0.00 | 0.00 | 0.00 | 60 | 991.0 |
| 20260507144503 | 56 | 171 | 4.0 | 8.0 | 0.00 | 0.00 | 0.00 | 62 | 991.0 |
| 20260507143603 | 56 | 171 | 4.0 | 8.0 | 0.00 | 0.00 | 0.00 | 61 | 991.1 |
| 20260507142918 | 57 | 162 | 4.0 | 8.0 | 0.00 | 0.00 | 0.00 | 62 | 991.3 |
| 20260507141803 | 57 | 186 | 4.0 | 10.0 | 0.00 | 0.00 | 0.00 | 63 | 991.4 |
| 20260507140903 | 57 | 201 | 4.0 | 10.0 | 0.00 | 0.00 | 0.00 | 63 | 991.4 |
| 20260507140003 | 57 | 167 | 4.0 | 11.0 | 0.00 | 0.00 | 0.00 | 63 | 991.6 |
| 20260507135403 | 57 | 152 | 4.0 | 11.0 | 0.00 | 0.00 | 0.00 | 62 | 991.7 |
| 20260507134503 | 57 | 139 | 4.0 | 10.0 | 0.00 | 0.00 | 0.00 | 62 | 991.5 |
| 20260507133603 | 57 | 147 | 6.0 | 10.0 | 0.00 | 0.00 | 0.00 | 63 | 991.7 |
| 20260507132703 | 57 | 181 | 6.0 | 13.0 | 0.00 | 0.00 | 0.00 | 63 | 991.8 |
| 20260507132017 | 57 | 170 | 5.0 | 13.0 | 0.00 | 0.00 | 0.00 | 63 | 991.7 |
| 20260507130903 | 56 | 150 | 5.0 | 13.0 | 0.00 | 0.00 | 0.00 | 65 | 991.5 |
| 20260507130003 | 56 | 150 | 5.0 | 11.0 | 0.00 | 0.00 | 0.00 | 63 | 991.7 |
| 20260507125617 | 56 | 144 | 5.0 | 10.0 | 0.00 | 0.00 | 0.00 | 65 | 991.8 |
| 20260507124503 | 56 | 140 | 4.0 | 11.0 | 0.00 | 0.00 | 0.00 | 68 | 991.8 |
| 20260507123603 | 56 | 147 | 4.0 | 14.0 | 0.00 | 0.00 | 0.00 | 69 | 991.9 |
| 20260507122917 | 55 | 136 | 4.0 | 11.0 | 0.00 | 0.00 | 0.00 | 68 | 991.8 |
| 20260507122018 | 55 | 129 | 4.0 | 11.0 | 0.00 | 0.00 | 0.00 | 70 | 991.8 |
| 20260507120903 | 54 | 145 | 4.0 | 10.0 | 0.00 | 0.00 | 0.00 | 71 | 991.9 |
| 20260507120003 | 53 | 144 | 4.0 | 10.0 | 0.00 | 0.00 | 0.00 | 73 | 991.9 |
| 20260507115616 | 53 | 143 | 4.0 | 10.0 | 0.00 | 0.00 | 0.00 | 72 | 992.1 |
| 20260507114503 | 52 | 156 | 4.0 | 11.0 | 0.00 | 0.00 | 0.00 | 73 | 991.9 |
| 20260507113603 | 52 | 148 | 4.0 | 11.0 | 0.00 | 0.00 | 0.00 | 74 | 992.0 |
| 20260507112703 | 52 | 147 | 4.0 | 11.0 | 0.00 | 0.00 | 0.00 | 77 | 992.1 |
| 20260507111803 | 51 | 148 | 4.0 | 9.0 | 0.00 | 0.00 | 0.00 | 79 | 992.2 |
| 20260507110903 | 51 | 153 | 4.0 | 9.0 | 0.00 | 0.00 | 0.00 | 79 | 992.1 |
| 20260507110003 | 50 | 152 | 4.0 | 11.0 | 0.00 | 0.00 | 0.00 | 79 | 992.1 |
| 20260507105403 | 50 | 146 | 5.0 | 12.0 | 0.00 | 0.00 | 0.00 | 81 | 992.3 |
| 20260507104503 | 49 | 146 | 4.0 | 12.0 | 0.00 | 0.00 | 0.00 | 83 | 992.3 |
| 20260507103603 | 49 | 136 | 4.0 | 11.0 | 0.00 | 0.00 | 0.00 | 84 | 992.4 |
| 20260507102703 | 48 | 136 | 5.0 | 11.0 | 0.00 | 0.00 | 0.00 | 85 | 992.4 |
| 20260507102017 | 48 | 134 | 4.0 | 11.0 | 0.00 | 0.00 | 0.00 | 85 | 992.4 |
| 20260507100903 | 48 | 133 | 4.0 | 9.0 | 0.00 | 0.00 | 0.00 | 87 | 992.4 |
| 20260507100218 | 47 | 132 | 4.0 | 10.0 | 0.00 | 0.00 | 0.00 | 86 | 992.3 |
| 20260507095618 | 47 | 131 | 4.0 | 10.0 | 0.00 | 0.00 | 0.00 | 87 | 992.3 |
| 20260507094503 | 47 | 128 | 4.0 | 10.0 | 0.00 | 0.00 | 0.00 | 87 | 992.2 |
| 20260507093603 | 46 | 127 | 4.0 | 8.0 | 0.00 | 0.00 | 0.00 | 88 | 992.2 |
| 20260507092703 | 46 | 126 | 3.0 | 8.0 | 0.00 | 0.00 | 0.00 | 88 | 992.1 |
| 20260507092017 | 46 | 126 | 4.0 | 9.0 | 0.00 | 0.00 | 0.00 | 89 | 992.0 |
| 20260507090903 | 45 | 128 | 5.0 | 12.0 | 0.00 | 0.00 | 0.00 | 89 | 992.2 |
| 20260507090004 | 45 | 131 | 4.0 | 9.0 | 0.00 | 0.00 | 0.00 | 89 | 992.2 |
| 20260507085403 | 45 | 131 | 5.0 | 10.0 | 0.00 | 0.00 | 0.00 | 90 | 992.1 |
| 20260507084503 | 45 | 132 | 4.0 | 9.0 | 0.00 | 0.00 | 0.00 | 90 | 992.1 |
| 20260507083603 | 44 | 133 | 4.0 | 9.0 | 0.00 | 0.00 | 0.00 | 90 | 992.2 |
| 20260507082703 | 44 | 133 | 4.0 | 11.0 | 0.00 | 0.00 | 0.00 | 91 | 992.2 |
| 20260507081803 | 44 | 135 | 4.0 | 10.0 | 0.00 | 0.00 | 0.00 | 91 | 992.2 |
| 20260507080903 | 43 | 135 | 5.0 | 10.0 | 0.00 | 0.00 | 0.00 | 91 | 992.2 |
| 20260507080017 | 43 | 132 | 5.0 | 10.0 | 0.00 | 0.00 | 0.00 | 91 | 992.1 |
| 20260507075403 | 43 | 127 | 4.0 | 11.0 | 0.00 | 0.00 | 0.00 | 91 | 992.2 |
| 20260507074503 | 43 | 125 | 4.0 | 9.0 | 0.00 | 0.00 | 0.00 | 91 | 992.0 |
| 20260507073603 | 43 | 128 | 4.0 | 11.0 | 0.00 | 0.00 | 0.00 | 92 | 992.1 |
| 20260507072703 | 42 | 126 | 4.0 | 10.0 | 0.00 | 0.00 | 0.00 | 92 | 992.0 |
| 20260507072016 | 42 | 127 | 4.0 | 8.0 | 0.00 | 0.00 | 0.00 | 92 | 992.1 |
| 20260507070903 | 42 | 119 | 5.0 | 12.0 | 0.00 | 0.00 | 0.00 | 92 | 991.8 |
| 20260507070005 | 42 | 116 | 5.0 | 12.0 | 0.00 | 0.00 | 0.00 | 92 | 991.9 |